Latest Coastal Weather Observations for Tasman Island

IDT60701

Issued at 8:42 pm EDT Sunday 11 December 2016 (issued every 10 minutes, with the page automatically refreshed every 10 minutes)

About coastal observations | Map of coastal stations | Coastal observations for TAS | Marine services | Other Formats
Station Details ID: 094155 Name: TASMAN ISLAND Lat: -43.24 Lon: 148.00 Height: 240.0 m
Data from the previous 72 hours. | See also: Recent months at Tasman Island
Date/Time
EDT
Temp
°C
Wind Pressure Rain since
9am
mm
Weather Cloud Vis
km
Sea
Height
m
Swell
Dir  Spd
kts
Gust
kts
hPa Trend Height
m
Period
s
Dir
11/08:30pm 10.6 NE 5 7 1023.4 - 0.0 - - - - - - -
11/08:00pm 10.8 ENE 2 4 1023.4 - 0.0 - - - - - - -
11/07:30pm 11.4 E 1 3 1023.3 - 0.0 - - - - - - -
11/07:00pm 11.9 ESE 2 3 1022.9 - 0.0 - - - - - - -
11/06:30pm 12.2 ESE 2 4 1022.9 - 0.0 - - - - - - -
11/06:00pm 12.2 SSE 4 7 1022.8 - 0.0 - - - - - - -
11/05:30pm 12.9 SSE 6 9 1022.8 - 0.0 - - - - - - -
11/05:00pm 13.5 S 7 11 1022.7 - 0.0 - - - - - - -
11/04:30pm 13.8 S 7 11 1022.8 - 0.0 - - - - - - -
11/04:00pm 13.3 SSW 8 13 1022.8 - 0.0 - - - - - - -
11/03:30pm 13.3 SSW 9 13 1022.7 - 0.0 - - - - - - -
11/03:00pm 14.4 SSW 7 12 1022.8 - 0.0 - - - - - - -
11/02:30pm 14.4 SW 9 12 1023.0 - 0.0 - - - - - - -
11/02:00pm 14.2 SW 9 13 1023.3 - 0.0 - - - - - - -
11/01:30pm 14.3 SW 9 13 1023.2 - 0.0 - - - - - - -
11/01:00pm 13.3 SW 10 14 1023.2 - 0.0 - - - - - - -
11/12:30pm 13.1 SW 11 16 1022.9 - 0.0 - - - - - - -
11/12:00pm 13.4 SW 12 18 1022.9 - 0.0 - - - - - - -
11/11:30am 12.5 SW 16 22 1022.7 - 0.0 - - - - - - -
11/11:00am 12.0 SW 15 23 1022.5 - 0.0 - - - - - - -
11/10:30am 11.7 SW 14 24 1022.4 - 0.0 - - - - - - -
11/10:00am 11.5 SW 12 25 1022.4 - 0.0 - - - - - - -
11/09:30am 11.7 SW 9 18 1022.4 - 0.0 - - - - - - -
11/09:00am 11.2 SW 11 20 1022.3 - 0.0 - - - - - - -
11/08:30am 10.3 SW 16 23 1022.0 - 0.0 - - - - - - -
11/08:19am 10.5 SW 17 28 1021.9 - 0.0 - - - - - - -
11/08:00am 10.9 SW 19 26 1021.4 - 0.0 - - - - - - -
11/07:32am 10.7 SW 16 26 1021.1 - 0.0 - - - - - - -
11/07:30am 10.5 SW 16 25 1021.1 - 0.0 - - - - - - -
11/07:00am 9.6 SW 16 27 1020.6 - 0.0 - - - - - - -
11/06:30am 9.2 SW 16 28 1020.1 - 0.0 - - - - - - -
11/06:00am 9.6 SW 17 28 1019.6 - 0.0 - - - - - - -
11/05:54am 9.4 SW 18 28 1019.3 - 0.0 - - - - - - -
11/05:30am 10.9 SW 7 17 1019.1 - 0.0 - - - - - - -
11/05:00am 10.3 WNW 3 11 1018.9 - 0.0 - - - - - - -
11/04:30am 10.4 W 4 9 1018.5 - 0.0 - - - - - - -
11/04:00am 10.3 WNW 3 10 1018.3 - 0.0 - - - - - - -
11/03:30am 10.5 WNW 4 14 1018.3 - 0.0 - - - - - - -
11/03:00am 10.5 NNW 4 13 1018.3 - 0.0 - - - - - - -
11/02:30am 10.6 WNW 4 11 1018.2 - 0.0 - - - - - - -
11/02:00am 10.7 N 4 10 1018.3 - 0.0 - - - - - - -
11/01:30am 10.7 SE 5 14 1018.2 - 0.0 - - - - - - -
11/01:00am 10.4 SSE 3 13 1018.0 - 0.0 - - - - - - -
11/12:30am 10.7 WSW 5 18 1018.1 - 0.0 - - - - - - -
11/12:00am 10.7 NNW 4 10 1018.2 - 0.0 - - - - - - -
 
Date/Time
EDT
Temp
°C
Wind Pressure Rain since
9am
mm
Weather Cloud Vis
km
Sea
Height
m
Swell
Dir  Spd
kts
Gust
kts
hPa Trend Height
m
Period
s
Dir
10/11:30pm 10.8 NW 5 14 1018.0 - 0.0 - - - - - - -
10/11:00pm 10.9 SE 3 11 1018.0 - 0.0 - - - - - - -
10/10:30pm 11.2 W 5 15 1018.1 - 0.0 - - - - - - -
10/10:00pm 11.3 WSW 10 19 1018.0 - 0.0 - - - - - - -
10/09:30pm 11.8 N 4 10 1017.7 - 0.0 - - - - - - -
10/09:00pm 12.0 SW 7 21 1017.5 - 0.0 - - - - - - -
10/08:30pm 11.8 WSW 11 20 1017.1 - 0.0 - - - - - - -
10/08:00pm 11.2 WSW 8 19 1016.6 - 0.0 - - - - - - -
10/07:30pm 11.1 WSW 7 17 1016.2 - 0.0 - - - - - - -
10/07:00pm 11.2 SSW 8 17 1016.1 - 0.0 - - - - - - -
10/06:30pm 11.7 SSW 9 15 1015.9 - 0.0 - - - - - - -
10/06:00pm 12.0 NE 3 7 1015.7 - 0.0 - - - - - - -
10/05:30pm 11.9 ESE 3 8 1015.9 - 0.0 - - - - - - -
10/05:00pm 12.4 ESE 3 10 1016.1 - 0.0 - - - - - - -
10/04:30pm 13.2 WSW 3 11 1016.2 - 0.0 - - - - - - -
10/04:00pm 13.3 W 2 8 1016.2 - 0.0 - - - - - - -
10/03:30pm 13.4 W 5 12 1016.2 - 0.0 - - - - - - -
10/03:00pm 13.4 W 5 14 1016.3 - 0.0 - - - - - - -
10/02:30pm 13.3 NW 5 12 1016.4 - 0.0 - - - - - - -
10/02:00pm 13.6 WNW 5 19 1016.4 - 0.0 - - - - - - -
10/01:30pm 14.5 NNE 4 10 1016.3 - 0.0 - - - - - - -
10/01:00pm 14.7 NNW 4 13 1016.4 - 0.0 - - - - - - -
10/12:30pm 13.7 NW 4 11 1016.3 - 0.0 - - - - - - -
10/12:00pm 14.2 W 7 15 1016.4 - 0.0 - - - - - - -
10/11:30am 14.2 NW 6 17 1016.2 - 0.0 - - - - - - -
10/11:00am 13.0 NNW 6 17 1016.2 - 0.0 - - - - - - -
10/10:30am 12.8 NNW 6 19 1015.8 - 0.0 - - - - - - -
10/10:00am 12.6 NW 6 19 1015.6 - 0.0 - - - - - - -
10/09:30am 12.4 NNW 4 16 1015.7 - 0.0 - - - - - - -
10/09:00am 12.3 NW 5 14 1015.6 - 0.4 - - - - - - -
10/08:30am 11.9 NW 4 12 1015.3 - 0.4 - - - - - - -
10/08:00am 11.8 NNW 5 15 1015.1 - 0.4 - - - - - - -
10/07:30am 11.1 NW 5 15 1014.8 - 0.4 - - - - - - -
10/07:00am 10.9 WNW 6 15 1014.5 - 0.4 - - - - - - -
10/06:30am 10.8 WSW 6 22 1014.1 - 0.4 - - - - - - -
10/06:00am 10.5 SSW 5 21 1013.9 - 0.4 - - - - - - -
10/05:30am 10.4 WSW 5 23 1013.8 - 0.4 - - - - - - -
10/05:00am 10.2 SW 5 18 1013.5 - 0.4 - - - - - - -
10/04:30am 9.9 W 5 15 1013.4 - 0.4 - - - - - - -
10/04:00am 9.8 SSW 4 17 1013.1 - 0.4 - - - - - - -
10/03:30am 9.7 N 5 17 1013.1 - 0.4 - - - - - - -
10/03:00am 9.6 NW 6 19 1013.2 - 0.4 - - - - - - -
10/02:30am 9.6 NNW 6 19 1013.2 - 0.4 - - - - - - -
10/02:00am 9.6 NW 6 24 1013.1 - 0.4 - - - - - - -
10/01:30am 9.6 NNW 7 24 1013.1 - 0.4 - - - - - - -
10/01:00am 9.6 NNW 6 22 1013.3 - 0.4 - - - - - - -
10/12:30am 9.4 WNW 6 19 1013.4 - 0.4 - - - - - - -
10/12:00am 9.4 W 7 19 1013.4 - 0.4 - - - - - - -
 
Date/Time
EDT
Temp
°C
Wind Pressure Rain since
9am
mm
Weather Cloud Vis
km
Sea
Height
m
Swell
Dir  Spd
kts
Gust
kts
hPa Trend Height
m
Period
s
Dir
09/11:30pm 9.6 NNW 6 20 1013.2 - 0.4 - - - - - - -
09/11:00pm 9.6 N 7 22 1013.2 - 0.4 - - - - - - -
09/10:30pm 9.5 SW 6 17 1012.9 - 0.4 - - - - - - -
09/10:00pm 9.5 WSW 7 19 1012.9 - 0.4 - - - - - - -
09/09:30pm 9.3 WSW 16 38 1012.8 - 0.4 - - - - - - -
09/09:26pm 9.2 WSW 14 38 1012.8 - 0.4 - - - - - - -
09/09:00pm 9.2 WSW 14 30 1012.7 - 0.4 - - - - - - -
09/08:30pm 9.0 WSW 15 35 1012.2 - 0.4 - - - - - - -
09/08:04pm 8.9 SW 15 35 1011.9 - 0.4 - - - - - - -
09/08:00pm 8.8 SW 14 31 1011.9 - 0.4 - - - - - - -
09/07:30pm 8.2 SW 18 37 1011.2 - 0.4 - - - - - - -
09/07:00pm 9.1 SW 16 33 1011.0 - 0.4 - - - - - - -
09/06:30pm 9.4 SW 19 36 1010.2 - 0.4 - - - - - - -
09/06:00pm 9.5 SW 20 36 1009.4 - 0.4 - - - - - - -
09/05:30pm 9.7 WSW 19 40 1009.1 - 0.4 - - - - - - -
09/05:00pm 9.5 WSW 19 39 1008.7 - 0.4 - - - - - - -
09/04:30pm 9.0 SW 20 36 1008.5 - 0.4 - - - - - - -
09/04:00pm 8.4 SW 21 47 1008.2 - 0.4 - - - - - - -
09/03:30pm 8.2 SW 20 47 1007.8 - 0.4 - - - - - - -
09/03:27pm 9.2 SW 19 47 1007.7 - 0.4 - - - - - - -
09/03:00pm 9.5 WSW 20 37 1007.6 - 0.4 Recent precip. - - - - - -
09/02:30pm 8.5 SW 20 43 1007.2 - 0.2 - - - - - - -
09/02:00pm 9.3 SW 21 47 1007.1 - 0.2 - - - - - - -
09/01:30pm 10.0 SW 20 48 1006.6 - 0.2 - - - - - - -
09/01:00pm 8.6 SW 26 47 1006.3 - 0.2 - - - - - - -
09/12:54pm 9.0 SW 21 47 1006.5 - 0.2 - - - - - - -
09/12:30pm 9.3 SW 20 46 1006.3 - 0.2 - - - - - - -
09/12:23pm 8.2 SW 27 51 1006.2 - 0.2 - - - - - - -
09/12:02pm 8.5 SW 24 48 1006.1 - 0.2 - - - - - - -
09/12:00pm 8.5 SW 21 44 1006.1 - 0.2 - - - - - - -
09/11:30am 9.3 SW 21 41 1005.6 - 0.2 - - - - - - -
09/11:19am 8.8 SW 22 46 1005.1 - 0.2 - - - - - - -
09/11:12am 8.7 SW 28 47 1005.2 - 0.2 - - - - - - -
09/11:00am 7.6 SW 28 50 1004.7 - 0.2 - - - - - - -
09/10:30am 8.1 SSW 26 45 1004.1 - 0.2 - - - - - - -
09/10:00am 6.4 SW 29 52 1004.0 - 0.2 - - - - - - -
09/09:56am 6.9 SW 28 52 1004.0 - 0.2 - - - - - - -
09/09:51am 7.5 SW 24 41 1004.0 - 0.2 - - - - - - -
09/09:30am 7.3 SW 26 51 1003.5 - 0.0 - - - - - - -
09/09:28am 7.7 SW 28 51 1003.3 - 0.0 - - - - - - -
09/09:25am 8.2 SW 31 51 1003.1 - 0.0 - - - - - - -
09/09:00am 7.8 SSW 23 42 1003.4 - - - - - - - - -
09/08:52am 8.0 SW 25 52 1003.2 - - - - - - - - -
09/08:49am 8.1 SW 30 52 1002.9 - - - - - - - - -
09/08:30am 7.7 SW 36 52 1002.5 - - - - - - - - -
09/08:08am 7.5 SW 26 54 1001.6 - - - - - - - - -
09/08:00am 7.2 SW 21 41 1001.2 - - - - - - - - -
09/07:47am 7.3 SW 27 53 1000.7 - - - - - - - - -
09/07:40am 7.6 SW 27 53 1000.5 - - - - - - - - -
09/07:30am 6.5 SW 28 53 1000.3 - - - - - - - - -
09/07:26am 6.4 SW 30 54 1000.3 - - - - - - - - -
09/07:00am 7.0 SSW 33 53 999.5 - - - - - - - - -
09/06:30am 7.1 SW 34 55 998.7 - - - - - - - - -
09/06:00am 7.0 SW 38 57 997.3 - - Recent precip. - - - - - -
09/05:33am 7.0 SW 28 50 997.0 - - - - - - - - -
09/05:30am 6.6 SW 24 47 997.0 - - - - - - - - -
09/05:29am 6.8 SW 25 47 997.0 - - - - - - - - -
09/05:23am 6.5 SW 31 55 996.8 - - - - - - - - -
09/05:15am 7.2 SW 26 55 996.0 - - - - - - - - -
09/05:12am 7.8 SW 23 52 996.1 - - - - - - - - -
09/05:02am 7.7 SW 29 52 996.0 - - - - - - - - -
09/05:00am 7.9 SW 31 55 995.8 - - - - - - - - -
09/04:53am 7.8 SW 25 55 995.8 - - - - - - - - -
09/04:50am 7.6 SW 23 46 995.6 - - - - - - - - -
09/04:46am 7.7 SW 23 46 995.7 - - - - - - - - -
09/04:30am 7.8 SW 31 53 995.0 - - - - - - - - -
09/04:13am 7.3 SW 35 58 994.5 - - - - - - - - -
09/04:07am 7.6 SW 27 58 994.2 - - - - - - - - -
09/04:00am 7.7 SW 26 48 994.2 - - - - - - - - -
09/03:30am 8.4 SW 26 48 993.4 - - - - - - - - -
09/03:00am 8.3 SW 25 51 992.5 - 3.0 Recent precip. - - - - - -
09/02:30am 8.5 SW 21 41 991.7 - - - - - - - - -
09/02:00am 8.3 WSW 24 50 991.6 - - - - - - - - -
09/01:30am 8.7 SW 29 53 991.3 - - - - - - - - -
09/01:28am 8.9 SW 32 53 991.3 - - - - - - - - -
09/01:20am 8.7 SW 27 52 990.4 - - - - - - - - -
09/01:00am 8.8 SW 23 44 990.1 - - - - - - - - -
09/12:30am 9.2 SW 27 61 988.9 - - - - - - - - -
09/12:00am 9.3 SW 21 59 987.3 - - - - - - - - -
 
Date/Time
EDT
Temp
°C
Wind Pressure Rain since
9am
mm
Weather Cloud Vis
km
Sea
Height
m
Swell
Dir  Spd
kts
Gust
kts
hPa Trend Height
m
Period
s
Dir
08/11:30pm 9.6 SW 23 47 986.2 - - - - - - - - -
08/11:03pm 10.8 SW 15 42 985.5 - - - - - - - - -
08/11:00pm 11.0 WSW 12 31 985.7 - - - - - - - - -
08/10:30pm 11.3 W 10 28 985.7 - - - - - - - - -
08/10:06pm 11.1 WSW 10 27 985.2 - - - - - - - - -
08/10:00pm 12.0 W 9 20 985.1 - - - - - - - - -
08/09:30pm 12.0 WSW 7 17 984.5 - - - - - - - - -
08/09:00pm 11.8 SSW 9 16 983.6 - 0.0 - - - - - - -

Other Formats:

Comma delimited format used in spreadsheet applications
http://www.bom.gov.au/fwo/IDT60701/IDT60701.95986.axf

JavaScript Object Notation format (JSON) in row-major order
http://www.bom.gov.au/fwo/IDT60701/IDT60701.95986.json